Airfield :
LOGIN :

Register | Disclaimer

   EN    FR    IT 

 










Legend :    VFR   Marginal VFR   IFR   Intensive IFR   Very Intensive IFR
Visi :
Ceiling :
>= 8 km
>= 3000ft
5 to 8 km
1000 to 3000 ft
1500m to 5 km
500 to 1000 ft
800 to 1500m
200 to 500 ft
< 800m
< 200 ft
Symbols :   Thunderstorms  Fog  Heavy snow  Heavy precipitations  Wind > 20 kt
SIGMETs :     Misc.  Thunderstorms  Icing  Turbulence  Mountain Waves  Volcanic Ashes







- Airport Elevation : 314 ft
- IATA code : OTP


LROP - Bucarest - Henri Coanda

CURRENT METAR :
  • 210000Z 00000KT 5000 -SHRA BR SCT040CB 13/12 Q1019 R88/29//95 NOSIG

EXPIRED METARs :
  • 202330Z VRB02KT 5000 -SHRA BR SCT040CB 13/12 Q1019 R88/29//95 NOSIG
  • 202300Z 06005KT 6000 -SHRA SCT040CB SCT042 13/12 Q1019 R88/29//95 NOSIG
  • 202230Z 32003KT 7000 SCT040CB BKN042 13/12 Q1020 R88/29//95 NOSIG
  • 202200Z VRB02KT 7000 VCTS FEW040CB SCT048 13/12 Q1019 R88/29//95 NOSIG
  • 202130Z VRB02KT 7000 VCTS FEW045CB BKN048 13/12 Q1019 R88/29//95 NOSIG

TAF TAF LROP
Valid from the 21 at 00:00 until the 22 at 00:00 UTC


202300Z 2100/2124 VRB04KT 9999 SCT040
TEMPO 2100/2107 5000 -SHRA BKN010 SCT030CB BKN035
BECMG 2117/2119 06012KT
No reported NOTAMs for that airfield.



MET'MAP, your aeronautical weather chart ! - Copyright ORBIFLY December 2007 - Disclaimer

ORBIFLY MET'MAP TEAM :

Programming & Development : Alexandra Zaïnal
Concept & Development : Baudouin d'Aumeries
Co-Development & Prog : Marc-Olivier Méhu
Technical & hardware support : Manuel Goepfert

Contact : metmap@orbifly.com




SOURCES & CREDITS :

   NOAA